createdAt,value
2018-08-21T00:01:58.076Z,8.10
2018-08-21T00:04:27.885Z,8.10
2018-08-21T00:06:56.632Z,9.30
2018-08-21T00:09:29.411Z,8.93
2018-08-21T00:12:16.576Z,8.63
2018-08-21T00:14:57.739Z,12.07
2018-08-21T00:17:26.495Z,8.47
2018-08-21T00:19:59.295Z,8.83
2018-08-21T00:22:42.792Z,9.20
2018-08-21T00:25:11.607Z,9.23
2018-08-21T00:27:40.403Z,8.57
2018-08-21T00:30:09.195Z,12.27
2018-08-21T00:32:38.783Z,9.00
2018-08-21T00:35:08.611Z,8.63
2018-08-21T00:37:37.387Z,13.70
2018-08-21T00:40:08.215Z,9.00
2018-08-21T00:42:37.063Z,9.67
2018-08-21T00:45:09.801Z,8.57
2018-08-21T00:47:39.512Z,9.50
2018-08-21T00:50:12.404Z,9.27
2018-08-21T00:52:54.171Z,9.70
2018-08-21T00:55:22.951Z,12.63
2018-08-21T00:57:52.775Z,9.03
2018-08-21T01:00:26.006Z,11.10
2018-08-21T01:02:54.967Z,11.17
2018-08-21T01:05:24.039Z,9.80
2018-08-21T01:07:56.679Z,10.90
2018-08-21T01:10:29.611Z,10.90
2018-08-21T01:12:58.359Z,12.27
2018-08-21T01:15:29.131Z,10.23
2018-08-21T01:18:02.211Z,9.80
2018-08-21T01:20:36.235Z,20.20
2018-08-21T01:23:05.028Z,9.43
2018-08-21T01:25:33.870Z,11.30
2018-08-21T01:28:06.687Z,10.47
2018-08-21T01:30:36.534Z,10.83
2018-08-21T01:33:19.376Z,9.60
2018-08-21T01:36:00.355Z,9.77
2018-08-21T01:38:31.155Z,10.20
2018-08-21T01:41:09.475Z,9.03
2018-08-21T01:43:38.211Z,10.27
2018-08-21T01:46:08.115Z,11.10
2018-08-21T01:48:38.910Z,9.50
2018-08-21T01:51:16.091Z,9.97
2018-08-21T01:53:56.175Z,14.77
2018-08-21T01:56:36.031Z,9.70
2018-08-21T01:59:17.295Z,11.20
2018-08-21T02:01:46.155Z,11.33
2018-08-21T02:04:20.699Z,10.60
2018-08-21T02:06:54.147Z,10.33
2018-08-21T02:09:25.924Z,10.93
2018-08-21T02:11:56.754Z,11.00
2018-08-21T02:14:25.548Z,12.73
2018-08-21T02:16:55.379Z,11.50
2018-08-21T02:19:25.181Z,13.47
2018-08-21T02:21:58.674Z,12.47
2018-08-21T02:24:30.747Z,11.93
2018-08-21T02:27:02.783Z,11.33
2018-08-21T02:29:31.563Z,17.00
2018-08-21T02:32:00.491Z,11.23
2018-08-21T02:34:36.830Z,10.83
2018-08-21T02:37:14.047Z,13.40
2018-08-21T02:39:47.311Z,12.83
2018-08-21T02:42:19.371Z,15.33
2018-08-21T02:44:49.211Z,10.07
2018-08-21T02:47:21.259Z,10.67
2018-08-21T02:49:50.067Z,12.87
2018-08-21T02:52:29.516Z,11.47
2018-08-21T02:54:58.371Z,11.00
2018-08-21T02:57:43.799Z,11.10
2018-08-21T03:00:24.345Z,10.67
2018-08-21T03:03:05.751Z,9.10
2018-08-21T03:05:40.983Z,10.80
2018-08-21T03:08:13.363Z,10.80
2018-08-21T03:10:52.767Z,11.30
2018-08-21T03:13:33.124Z,11.57
2018-08-21T03:16:06.183Z,10.93
2018-08-21T03:18:36.045Z,12.00
2018-08-21T03:21:17.171Z,11.00
2018-08-21T03:23:51.080Z,12.20
2018-08-21T03:26:20.983Z,12.10
2018-08-21T03:29:02.259Z,12.37
2018-08-21T03:31:32.106Z,10.03
2018-08-21T03:34:02.068Z,11.10
2018-08-21T03:36:36.026Z,10.87
2018-08-21T03:39:27.171Z,12.10
2018-08-21T03:41:57.988Z,12.13
2018-08-21T03:44:26.762Z,10.83
2018-08-21T03:46:55.611Z,11.47
2018-08-21T03:49:27.591Z,12.80
2018-08-21T03:52:01.499Z,12.80
2018-08-21T03:54:36.442Z,12.07
2018-08-21T03:57:12.666Z,13.40
2018-08-21T03:59:41.611Z,17.43
2018-08-21T04:02:34.195Z,12.00
2018-08-21T04:05:08.035Z,15.50
2018-08-21T04:07:36.839Z,13.23
2018-08-21T04:10:10.213Z,13.67
2018-08-21T04:12:45.507Z,14.10
2018-08-21T04:15:14.379Z,14.43
2018-08-21T04:17:46.623Z,17.90
2018-08-21T04:20:18.426Z,12.67
2018-08-21T04:22:53.787Z,15.03
2018-08-21T04:25:26.006Z,13.47
2018-08-21T04:27:57.868Z,13.67
2018-08-21T04:30:28.950Z,14.10
2018-08-21T04:32:59.726Z,15.30
2018-08-21T04:35:34.910Z,12.20
2018-08-21T04:38:03.771Z,14.07
2018-08-21T04:40:37.038Z,13.10
2018-08-21T04:43:11.587Z,13.60
2018-08-21T04:45:42.418Z,12.80
2018-08-21T04:48:18.415Z,14.37
2018-08-21T04:50:50.662Z,16.00
2018-08-21T04:53:23.530Z,23.50
2018-08-21T04:55:53.322Z,14.53
2018-08-21T04:58:34.448Z,14.67
2018-08-21T05:01:10.712Z,16.63
2018-08-21T05:03:39.654Z,23.73
2018-08-21T05:06:11.823Z,14.53
2018-08-21T05:09:04.942Z,17.60
2018-08-21T05:14:27.567Z,14.87
2018-08-21T05:17:04.666Z,13.10
2018-08-21T05:19:35.462Z,14.67
2018-08-21T05:22:05.297Z,13.13
2018-08-21T05:24:45.156Z,12.57
2018-08-21T05:27:19.670Z,12.67
2018-08-21T05:29:48.434Z,12.57
2018-08-21T05:32:18.266Z,12.90
2018-08-21T05:34:51.846Z,12.60
2018-08-21T05:37:24.239Z,15.03
2018-08-21T05:39:58.314Z,13.30
2018-08-21T05:42:36.174Z,11.97
2018-08-21T05:45:07.326Z,11.63
2018-08-21T05:47:36.205Z,11.87
2018-08-21T05:50:14.117Z,13.20
2018-08-21T05:52:43.905Z,12.20
2018-08-21T05:55:16.107Z,16.53
2018-08-21T05:57:44.865Z,11.87
2018-08-21T06:00:16.654Z,11.47
2018-08-21T06:02:46.782Z,10.80
2018-08-21T06:05:17.541Z,11.10
2018-08-21T06:07:46.393Z,10.50
2018-08-21T06:10:21.034Z,11.60
2018-08-21T06:13:04.866Z,11.40
2018-08-21T06:15:37.334Z,11.77
2018-08-21T06:18:14.105Z,12.30
2018-08-21T06:20:50.714Z,10.07
2018-08-21T06:23:21.938Z,11.30
2018-08-21T06:25:52.707Z,11.10
2018-08-21T06:28:30.071Z,10.57
2018-08-21T06:30:58.902Z,11.70
2018-08-21T06:33:31.096Z,10.53
2018-08-21T06:36:03.481Z,11.63
2018-08-21T06:38:34.418Z,12.33
2018-08-21T06:41:03.170Z,12.13
2018-08-21T06:43:35.809Z,9.77
2018-08-21T06:46:13.405Z,9.90
2018-08-21T06:48:43.287Z,9.50
2018-08-21T06:51:12.049Z,8.97
2018-08-21T06:53:44.093Z,11.43
2018-08-21T06:56:19.676Z,9.83
2018-08-21T06:58:48.593Z,10.07
2018-08-21T07:01:21.797Z,9.13
2018-08-21T07:04:02.093Z,9.93
2018-08-21T07:06:30.881Z,10.70
2018-08-21T07:09:00.600Z,10.30
2018-08-21T07:11:29.349Z,8.73
2018-08-21T07:13:59.333Z,9.47
2018-08-21T07:16:29.069Z,10.10
2018-08-21T07:19:04.413Z,8.43
2018-08-21T07:21:42.180Z,9.47
2018-08-21T07:24:14.577Z,7.60
2018-08-21T07:26:44.385Z,10.20
2018-08-21T07:29:16.436Z,8.30
2018-08-21T07:31:46.069Z,12.33
2018-08-21T07:34:26.837Z,7.00
2018-08-21T07:36:59.205Z,8.37
2018-08-21T07:39:29.001Z,8.30
2018-08-21T07:41:59.757Z,8.13
2018-08-21T07:44:28.469Z,10.60
2018-08-21T07:46:57.205Z,7.43
2018-08-21T07:49:27.954Z,6.33
2018-08-21T07:52:02.406Z,8.00
2018-08-21T07:54:35.079Z,7.27
2018-08-21T07:57:03.790Z,7.03
2018-08-21T07:59:32.610Z,7.33
2018-08-21T08:02:06.830Z,7.50
2018-08-21T08:04:52.686Z,8.37
2018-08-21T08:07:30.202Z,7.53
2018-08-21T08:10:11.210Z,7.90
2018-08-21T08:12:43.263Z,7.30
2018-08-21T08:15:16.044Z,6.70
2018-08-21T08:17:50.342Z,8.00
2018-08-21T08:20:22.092Z,6.70
2018-08-21T08:22:50.828Z,10.97
2018-08-21T08:25:20.526Z,8.80
2018-08-21T08:27:50.318Z,6.40
2018-08-21T08:30:19.390Z,6.17
2018-08-21T08:32:55.294Z,8.50
2018-08-21T08:35:28.643Z,7.13
2018-08-21T08:38:08.878Z,6.27
2018-08-21T08:40:37.707Z,6.00
2018-08-21T08:43:13.226Z,6.63
2018-08-21T08:45:49.598Z,6.07
2018-08-21T08:48:28.278Z,6.00
2018-08-21T08:51:01.534Z,5.27
2018-08-21T08:53:31.238Z,5.40
2018-08-21T08:56:06.714Z,5.43
2018-08-21T08:58:35.484Z,5.77
2018-08-21T09:01:08.638Z,6.20
2018-08-21T09:03:43.883Z,5.63
2018-08-21T09:06:19.998Z,6.23
2018-08-21T09:08:50.698Z,5.93
2018-08-21T09:11:19.766Z,5.30
2018-08-21T09:13:50.806Z,5.90
2018-08-21T09:16:19.546Z,5.90
2018-08-21T09:19:07.058Z,5.50
2018-08-21T09:21:35.794Z,5.23
2018-08-21T09:24:07.796Z,7.03
2018-08-21T09:26:48.990Z,4.93
2018-08-21T09:29:29.306Z,4.60
2018-08-21T09:31:57.913Z,5.00
2018-08-21T09:34:26.694Z,4.77
2018-08-21T09:37:03.339Z,4.10
2018-08-21T09:39:34.062Z,4.60
2018-08-21T09:42:10.286Z,5.07
2018-08-21T09:44:39.010Z,5.30
2018-08-21T09:47:18.678Z,5.37
2018-08-21T09:49:59.650Z,5.27
2018-08-21T09:52:35.187Z,7.20
2018-08-21T09:55:05.110Z,4.30
2018-08-21T09:57:35.246Z,5.50
2018-08-21T10:00:10.846Z,4.80
2018-08-21T10:02:46.040Z,6.67
2018-08-21T10:05:23.658Z,4.53
2018-08-21T10:07:54.338Z,5.83
2018-08-21T10:10:25.485Z,5.40
2018-08-21T10:12:56.522Z,6.30
2018-08-21T10:15:29.941Z,5.87
2018-08-21T10:18:00.775Z,5.50
2018-08-21T10:20:33.712Z,5.03
2018-08-21T10:23:07.334Z,5.77
2018-08-21T10:25:46.026Z,7.90
2018-08-21T10:28:18.354Z,5.43
2018-08-21T10:30:54.462Z,5.13
2018-08-21T10:33:29.070Z,5.87
2018-08-21T10:36:03.514Z,5.23
2018-08-21T10:38:32.358Z,5.70
2018-08-21T10:41:02.166Z,6.30
2018-08-21T10:43:33.962Z,5.70
2018-08-21T10:46:05.790Z,5.07
2018-08-21T10:48:34.634Z,5.87
2018-08-21T10:51:08.744Z,6.83
2018-08-21T10:53:38.882Z,5.37
2018-08-21T10:56:14.266Z,5.47
2018-08-21T10:58:43.046Z,4.67
2018-08-21T11:01:18.629Z,6.17
2018-08-21T11:03:49.605Z,7.70
2018-08-21T11:06:24.229Z,6.13
2018-08-21T11:08:53.957Z,5.43
2018-08-21T11:11:32.290Z,11.40
2018-08-21T11:14:14.546Z,6.03
2018-08-21T11:16:45.249Z,5.33
2018-08-21T11:19:15.990Z,5.00
2018-08-21T11:21:44.822Z,5.70
2018-08-21T11:24:13.679Z,5.13
2018-08-21T11:26:46.277Z,8.10
2018-08-21T11:29:15.038Z,5.60
2018-08-21T11:31:43.858Z,5.70
2018-08-21T11:34:12.602Z,5.00
2018-08-21T11:36:41.446Z,5.60
2018-08-21T11:39:10.154Z,6.43
2018-08-21T11:41:39.970Z,4.93
2018-08-21T11:44:14.670Z,5.23
2018-08-21T11:46:43.474Z,5.50
2018-08-21T11:49:17.362Z,5.63
2018-08-21T11:51:48.106Z,4.73
2018-08-21T11:54:20.190Z,4.70
2018-08-21T11:56:54.544Z,5.57
2018-08-21T11:59:23.390Z,5.10
2018-08-21T12:01:52.562Z,5.27
2018-08-21T12:04:32.733Z,5.33
2018-08-21T12:07:12.934Z,6.03
2018-08-21T12:09:41.758Z,5.10
2018-08-21T12:12:21.578Z,5.07
2018-08-21T12:14:50.524Z,5.80
2018-08-21T12:17:24.079Z,5.70
2018-08-21T12:19:52.826Z,5.27
2018-08-21T12:22:25.250Z,4.70
2018-08-21T12:24:55.161Z,5.57
2018-08-21T12:27:29.518Z,4.53
2018-08-21T12:29:59.349Z,5.77
2018-08-21T12:32:33.222Z,4.63
2018-08-21T12:35:02.013Z,4.60
2018-08-21T12:37:30.822Z,5.03
2018-08-21T12:40:00.674Z,6.90
2018-08-21T12:42:31.450Z,5.40
2018-08-21T12:45:02.292Z,5.40
2018-08-21T12:47:37.393Z,4.80
2018-08-21T12:50:10.631Z,5.07
2018-08-21T12:52:47.137Z,5.73
2018-08-21T12:55:23.177Z,4.37
2018-08-21T12:57:53.909Z,5.00
2018-08-21T13:00:22.810Z,5.07
2018-08-21T13:02:52.606Z,4.73
2018-08-21T13:05:22.384Z,4.50
2018-08-21T13:07:57.654Z,7.97
2018-08-21T13:10:26.390Z,4.73
2018-08-21T13:12:55.209Z,5.10
2018-08-21T13:15:23.961Z,4.60
2018-08-21T13:17:56.165Z,5.70
2018-08-21T13:20:25.900Z,5.03
2018-08-21T13:22:54.744Z,5.17
2018-08-21T13:25:23.552Z,5.00
2018-08-21T13:27:52.339Z,5.23
2018-08-21T13:30:21.096Z,5.27
2018-08-21T13:32:49.820Z,5.40
2018-08-21T13:35:19.652Z,6.30
2018-08-21T13:37:49.484Z,5.07
2018-08-21T13:40:18.213Z,10.10
2018-08-21T13:42:47.375Z,5.27
2018-08-21T13:45:16.108Z,5.20
2018-08-21T13:47:44.908Z,4.77
2018-08-21T13:50:13.683Z,6.07
2018-08-21T13:52:42.475Z,5.03
2018-08-21T13:55:15.647Z,7.30
2018-08-21T13:57:45.472Z,4.37
2018-08-21T14:00:16.280Z,5.17
2018-08-21T14:02:48.176Z,4.40
2018-08-21T14:05:20.096Z,4.70
2018-08-21T14:07:51.941Z,4.70
2018-08-21T14:10:27.545Z,4.30
2018-08-21T14:12:57.355Z,4.27
2018-08-21T14:15:33.233Z,4.50
2018-08-21T14:18:02.053Z,4.23
2018-08-21T14:20:32.801Z,4.00
2018-08-21T14:23:02.609Z,4.93
2018-08-21T14:25:33.337Z,6.43
2018-08-21T14:28:02.052Z,4.50
2018-08-21T14:30:32.277Z,4.37
2018-08-21T14:33:09.270Z,5.30
2018-08-21T14:35:45.324Z,4.73
2018-08-21T14:38:19.517Z,4.13
2018-08-21T14:40:49.386Z,5.90
2018-08-21T14:43:23.523Z,5.20
2018-08-21T14:45:58.026Z,6.10
2018-08-21T14:48:32.580Z,4.60
2018-08-21T14:51:13.018Z,5.83
2018-08-21T14:53:43.730Z,4.73
2018-08-21T14:56:14.546Z,5.40
2018-08-21T14:58:51.078Z,4.57
2018-08-21T15:01:32.091Z,7.80
2018-08-21T15:04:15.649Z,4.53
2018-08-21T15:06:45.406Z,5.33
2018-08-21T15:09:28.387Z,5.00
2018-08-21T15:11:57.218Z,5.73
2018-08-21T15:14:28.811Z,4.87
2018-08-21T15:16:57.596Z,7.43
2018-08-21T15:19:32.066Z,5.47
2018-08-21T15:22:09.053Z,4.60
2018-08-21T15:24:51.622Z,7.20
2018-08-21T15:27:22.394Z,10.93
2018-08-21T15:29:51.186Z,5.07
2018-08-21T15:32:24.146Z,4.40
2018-08-21T15:34:55.834Z,4.73
2018-08-21T15:37:25.102Z,4.93
2018-08-21T15:39:55.073Z,6.10
2018-08-21T15:42:27.500Z,5.03
2018-08-21T15:44:57.334Z,4.73
2018-08-21T15:47:26.097Z,4.50
2018-08-21T15:49:54.860Z,5.57
2018-08-21T15:52:28.558Z,4.20
2018-08-21T15:54:57.386Z,4.07
2018-08-21T15:57:28.130Z,4.77
2018-08-21T16:00:09.354Z,5.03
2018-08-21T16:02:41.234Z,4.37
2018-08-21T16:05:10.058Z,3.87
2018-08-21T16:07:43.118Z,5.10
2018-08-21T16:10:17.866Z,4.73
2018-08-21T16:12:48.624Z,4.27
2018-08-21T16:15:22.902Z,4.87
2018-08-21T16:18:03.538Z,3.90
2018-08-21T16:20:34.314Z,6.33
2018-08-21T16:23:03.110Z,4.20
2018-08-21T16:25:33.858Z,4.10
2018-08-21T16:28:10.133Z,4.40
2018-08-21T16:30:49.983Z,4.20
2018-08-21T16:33:19.769Z,4.60
2018-08-21T16:35:50.489Z,4.27
2018-08-21T16:38:22.657Z,3.90
2018-08-21T16:40:51.458Z,4.00
2018-08-21T16:43:20.126Z,3.90
2018-08-21T16:45:50.865Z,5.10
2018-08-21T16:48:19.677Z,5.80
2018-08-21T16:51:01.410Z,6.90
2018-08-21T16:53:43.407Z,4.47
2018-08-21T17:01:50.909Z,6.70
2018-08-21T17:04:26.470Z,3.93
2018-08-21T17:06:55.314Z,3.97
2018-08-21T17:09:27.372Z,4.77
2018-08-21T17:12:13.430Z,4.50
2018-08-21T17:14:42.255Z,4.00
2018-08-21T17:17:12.990Z,9.47
2018-08-21T17:19:58.962Z,5.70
2018-08-21T17:22:31.766Z,6.10
2018-08-21T17:25:01.579Z,3.70
2018-08-21T17:27:30.358Z,4.67
2018-08-21T17:30:02.662Z,4.43
2018-08-21T17:32:31.418Z,4.60
2018-08-21T17:35:04.591Z,5.00
2018-08-21T17:37:43.093Z,4.37
2018-08-21T17:40:28.466Z,5.43
2018-08-21T17:42:59.251Z,9.53
2018-08-21T17:48:42.145Z,10.30
2018-08-21T17:51:24.714Z,6.87
2018-08-21T17:54:13.386Z,5.47
2018-08-21T17:56:47.982Z,5.63
2018-08-21T17:59:24.691Z,4.80
2018-08-21T18:04:47.518Z,4.57
2018-08-21T18:07:16.321Z,4.90
2018-08-21T18:09:45.074Z,5.10
2018-08-21T18:12:19.094Z,6.30
2018-08-21T18:14:48.938Z,4.80
2018-08-21T18:17:19.770Z,8.33
2018-08-21T18:19:49.574Z,9.13
2018-08-21T18:22:19.378Z,7.63
2018-08-21T18:24:52.227Z,5.57
2018-08-21T18:27:25.433Z,6.80
2018-08-21T18:29:56.204Z,4.67
2018-08-21T18:32:24.982Z,4.90
2018-08-21T18:34:53.750Z,5.70
2018-08-21T18:37:24.650Z,7.40
2018-08-21T18:39:57.582Z,5.17
2018-08-21T18:42:26.369Z,5.40
2018-08-21T18:44:58.645Z,5.43
2018-08-21T18:47:37.209Z,5.40
2018-08-21T18:50:23.796Z,7.47
2018-08-21T18:53:05.206Z,5.37
2018-08-21T18:55:46.061Z,7.50
2018-08-21T18:58:21.033Z,5.50
2018-08-21T19:00:55.529Z,4.97
2018-08-21T19:03:27.629Z,8.60
2018-08-21T19:06:09.794Z,5.83
2018-08-21T19:08:42.022Z,4.87
2018-08-21T19:11:18.497Z,5.73
2018-08-21T19:13:48.265Z,6.63
2018-08-21T19:19:23.613Z,6.77
2018-08-21T19:22:04.029Z,5.70
2018-08-21T19:24:45.445Z,9.40
2018-08-21T19:27:25.153Z,5.53
2018-08-21T19:29:58.417Z,10.17
2018-08-21T19:32:27.180Z,15.80
2018-08-21T19:34:56.042Z,12.03
2018-08-21T19:37:24.789Z,18.47
2018-08-21T19:39:54.597Z,13.13
2018-08-21T19:42:24.438Z,7.70
2018-08-21T19:45:00.917Z,15.73
2018-08-21T19:47:30.742Z,22.57
2018-08-21T19:50:13.765Z,9.73
2018-08-21T19:52:44.545Z,10.83
2018-08-21T19:55:19.417Z,14.43
2018-08-21T19:57:50.225Z,7.87
2018-08-21T20:00:22.071Z,7.00
2018-08-21T20:03:01.661Z,6.07
2018-08-21T20:05:36.119Z,6.77
2018-08-21T20:08:12.941Z,10.33
2018-08-21T20:10:52.073Z,6.60
2018-08-21T20:13:24.409Z,6.60
2018-08-21T20:15:54.264Z,9.13
2018-08-21T20:18:40.477Z,8.00
2018-08-21T20:21:09.293Z,6.90
2018-08-21T20:23:52.177Z,6.40
2018-08-21T20:26:21.440Z,9.87
2018-08-21T20:28:50.221Z,10.20
2018-08-21T20:31:20.009Z,8.00
2018-08-21T20:33:50.948Z,8.40
2018-08-21T20:36:24.980Z,8.57
2018-08-21T20:38:59.128Z,11.10
2018-08-21T20:41:39.797Z,8.00
2018-08-21T20:44:08.513Z,7.93
2018-08-21T20:46:40.720Z,7.50
2018-08-21T20:49:16.299Z,8.13
2018-08-21T20:51:51.416Z,8.27
2018-08-21T20:54:24.777Z,7.60
2018-08-21T20:56:53.601Z,8.30
2018-08-21T20:59:22.349Z,10.60
2018-08-21T21:01:51.148Z,10.23
2018-08-21T21:04:19.974Z,8.13
2018-08-21T21:06:53.989Z,9.70
2018-08-21T21:09:22.833Z,9.13
2018-08-21T21:11:55.201Z,9.33
2018-08-21T21:14:36.252Z,9.50
2018-08-21T21:17:18.664Z,8.43
2018-08-21T21:19:59.880Z,8.27
2018-08-21T21:22:40.952Z,9.07
2018-08-21T21:25:13.512Z,8.23
2018-08-21T21:27:47.772Z,10.57
2018-08-21T21:30:22.249Z,8.50
2018-08-21T21:32:51.054Z,8.53
2018-08-21T21:35:21.871Z,8.50
2018-08-21T21:37:58.472Z,8.00
2018-08-21T21:40:32.873Z,9.10
2018-08-21T21:43:03.303Z,9.30
2018-08-21T21:45:32.532Z,13.77
2018-08-21T21:48:01.289Z,8.87
2018-08-21T21:50:35.277Z,8.47
2018-08-21T21:53:10.465Z,9.83
2018-08-21T21:55:40.311Z,7.87
2018-08-21T21:58:14.102Z,8.90
2018-08-21T22:00:54.138Z,10.00
2018-08-21T22:03:23.898Z,9.10
2018-08-21T22:05:57.924Z,9.83
2018-08-21T22:08:34.396Z,8.07
2018-08-21T22:11:04.184Z,10.93
2018-08-21T22:13:34.088Z,8.90
2018-08-21T22:16:02.884Z,8.33
2018-08-21T22:18:43.292Z,9.20
2018-08-21T22:21:12.032Z,9.80
2018-08-21T22:26:34.595Z,8.70
2018-08-21T22:29:10.423Z,8.40
2018-08-21T22:31:44.792Z,9.23
2018-08-21T22:34:17.871Z,9.17
2018-08-21T22:36:52.168Z,8.57
2018-08-21T22:39:21.980Z,9.33
2018-08-21T22:41:58.612Z,8.20
2018-08-21T22:44:33.548Z,8.33
2018-08-21T22:47:04.428Z,8.30
2018-08-21T22:49:35.193Z,9.67
2018-08-21T22:52:14.479Z,8.63
2018-08-21T22:54:48.008Z,9.43
2018-08-21T22:57:21.184Z,10.77
2018-08-21T22:59:50.995Z,9.50
2018-08-21T23:02:22.968Z,8.30
2018-08-21T23:04:51.752Z,15.23
2018-08-21T23:07:23.912Z,9.43
2018-08-21T23:09:56.936Z,7.97
2018-08-21T23:12:32.292Z,8.20
2018-08-21T23:15:02.065Z,9.20
2018-08-21T23:17:31.888Z,8.33
2018-08-21T23:20:06.140Z,10.00
2018-08-21T23:22:35.116Z,8.80
2018-08-21T23:25:07.748Z,8.20
2018-08-21T23:27:46.580Z,10.13
2018-08-21T23:30:16.292Z,9.47
2018-08-21T23:32:51.344Z,8.23
2018-08-21T23:35:20.100Z,8.37
2018-08-21T23:38:04.839Z,9.03
2018-08-21T23:40:38.882Z,8.73
2018-08-21T23:43:07.660Z,7.60
2018-08-21T23:45:36.464Z,8.07
2018-08-21T23:48:22.404Z,9.43
2018-08-21T23:50:52.040Z,8.20
2018-08-21T23:53:21.884Z,8.07
2018-08-21T23:56:08.735Z,8.47
2018-08-21T23:58:43.191Z,7.57
